AGROMETEOROLOŠKI PORTAL
Vinorodna pokrajina

Temelj dobrega kmetovanja.

Pregled podatkov za lokacijo Borovnica, meteorološka postaja 516307

Pregled senzorjev na lokaciji

ID Ime Zadnja
vrednost
Datum in čas
meritve
(lokalni čas)
Tip
senzorja
7005 Omočenost lista (1,5 m) (U) 0 U 15.4.2024 07:00 A730WET
7002 Padavine (mm) 0 mm 15.4.2024 07:00 Generic 0.2 mm
7004 Relativna zračna vlaga (2 m) (%RH) 59 %RH 15.4.2024 07:00 50YA
7003 Temperatura (2 m) (°C) 14,6 °C 15.4.2024 07:00 50YA
7006 Hitrost vetra (3 m) (km/h) 4 km/h 15.4.2024 07:00 Generic 200 km/h

Pregled podatkov zadnjih 24 ur

Zap.
št.
Datum in čas
(lokalni čas)
Borovnica
Omočenost
lista
(1,5
m)
Padavine Relativna
zračna
vlaga
(2
m)
Temperatura
(2
m)
Hitrost
vetra
(3
m)
1 15.4.2024 07:00 0 0 58,5 14,6 3,9
2 15.4.2024 06:30 0 0 57,9 14,5 4,8
3 15.4.2024 06:00 0 0 65,7 12,9 3,4
4 15.4.2024 05:30 0 0 66,4 12,9 3,2
5 15.4.2024 05:00 0 0 62,5 14 4,4
6 15.4.2024 04:30 0 0 57,2 15,4 8,1
7 15.4.2024 04:00 0 0 51,9 16,9 6,9
8 15.4.2024 03:30 0 0 47,9 18 10
9 15.4.2024 03:00 0 0 50,3 17,6 8,3
10 15.4.2024 02:30 0 0 50,7 18,1 10
11 15.4.2024 02:00 0 0 52,9 17,8 8,9
12 15.4.2024 01:30 0 0 51,3 18,5 10,2
13 15.4.2024 01:00 0 0 53 18,1 7,6
14 15.4.2024 00:30 0 0 52,2 18,3 7,6
15 15.4.2024 00:00 0 0 55 17,5 5,7
16 14.4.2024 23:30 0 0 53 17,6 5
17 14.4.2024 23:00 0 0 49,9 18,4 6,9
18 14.4.2024 22:30 0 0 51,4 19,4 9,3
19 14.4.2024 22:00 0 0 52,7 17,4 6,5
20 14.4.2024 21:30 0 0 50,4 18,3 6
21 14.4.2024 21:00 0 0 42,5 21 11
22 14.4.2024 20:30 0 0 49,5 19,5 5,8
23 14.4.2024 20:00 0 0 49,5 19,8 4,2
24 14.4.2024 19:30 0 0 43 22,5 5,8
25 14.4.2024 19:00 0 0 39,1 23,9 9,1
26 14.4.2024 18:30 0 0 36,5 24,7 13,7
27 14.4.2024 18:00 0 0 35,3 25,4 11,6
28 14.4.2024 17:30 0 0 35,5 25,7 14,2
29 14.4.2024 17:00 0 0 35,7 26 16,1
30 14.4.2024 16:30 0 0 36,6 26,3 15
31 14.4.2024 16:00 0 0 36,5 26,6 17,1
32 14.4.2024 15:30 0 0 36,2 26,9 15,5
33 14.4.2024 15:00 0 0 36,4 27,3 12,4
34 14.4.2024 14:30 0 0 36,4 27,2 14,7
35 14.4.2024 14:00 0 0 37,5 27 15,6
36 14.4.2024 13:30 0 0 39 26,9 14,4
37 14.4.2024 13:00 0 0 39,8 26,9 12,5
38 14.4.2024 12:30 0 0 38,4 26,7 10,2
39 14.4.2024 12:00 0 0 40,3 26,3 10,7
40 14.4.2024 11:30 0 0 56,2 24,3 6,5
41 14.4.2024 11:00 0 0 69,5 21,3 4,5
42 14.4.2024 10:30 0 0 71,9 19,4 4,2
43 14.4.2024 10:00 0 0 75,3 17,9 4
44 14.4.2024 09:30 0 0 79,6 16,2 3,2
45 14.4.2024 09:00 2 0 83 14,8 1,8
46 14.4.2024 08:30 10 0 95,5 12,5 2,4